sensor_id;sensor_type;location;lat;lon;timestamp;P1;durP1;ratioP1;P2;durP2;ratioP2
68449;SDS011;55434;39.570;2.652;2022-08-02T00:01:18;9.20;;;3.83;;
68449;SDS011;55434;39.570;2.652;2022-08-02T00:03:43;8.63;;;3.40;;
68449;SDS011;55434;39.570;2.652;2022-08-02T00:06:09;6.97;;;3.50;;
68449;SDS011;55434;39.570;2.652;2022-08-02T00:08:34;10.13;;;3.83;;
68449;SDS011;55434;39.570;2.652;2022-08-02T00:11:00;10.03;;;3.80;;
68449;SDS011;55434;39.570;2.652;2022-08-02T00:13:26;7.57;;;3.60;;
68449;SDS011;55434;39.570;2.652;2022-08-02T00:15:51;8.73;;;3.83;;
68449;SDS011;55434;39.570;2.652;2022-08-02T00:18:17;6.80;;;3.50;;
68449;SDS011;55434;39.570;2.652;2022-08-02T00:20:45;7.30;;;3.55;;
68449;SDS011;55434;39.570;2.652;2022-08-02T00:23:10;8.02;;;3.50;;
68449;SDS011;55434;39.570;2.652;2022-08-02T00:25:36;7.77;;;3.20;;
68449;SDS011;55434;39.570;2.652;2022-08-02T00:28:02;7.50;;;3.57;;
68449;SDS011;55434;39.570;2.652;2022-08-02T00:30:27;7.15;;;3.60;;
68449;SDS011;55434;39.570;2.652;2022-08-02T00:32:53;7.00;;;3.67;;
68449;SDS011;55434;39.570;2.652;2022-08-02T00:35:18;6.63;;;3.27;;
68449;SDS011;55434;39.570;2.652;2022-08-02T00:37:44;5.95;;;3.22;;
68449;SDS011;55434;39.570;2.652;2022-08-02T00:40:10;7.13;;;3.67;;
68449;SDS011;55434;39.570;2.652;2022-08-02T00:42:36;8.38;;;3.58;;
68449;SDS011;55434;39.570;2.652;2022-08-02T00:45:02;8.73;;;3.17;;
68449;SDS011;55434;39.570;2.652;2022-08-02T00:47:28;7.47;;;3.60;;
68449;SDS011;55434;39.570;2.652;2022-08-02T00:49:54;6.53;;;3.35;;
68449;SDS011;55434;39.570;2.652;2022-08-02T00:52:20;9.63;;;3.43;;
68449;SDS011;55434;39.570;2.652;2022-08-02T00:54:47;7.97;;;3.50;;
68449;SDS011;55434;39.570;2.652;2022-08-02T00:57:13;9.27;;;3.20;;
68449;SDS011;55434;39.570;2.652;2022-08-02T00:59:39;10.50;;;3.30;;
68449;SDS011;55434;39.570;2.652;2022-08-02T01:02:06;8.35;;;3.53;;
68449;SDS011;55434;39.570;2.652;2022-08-02T01:04:34;11.32;;;3.58;;
68449;SDS011;55434;39.570;2.652;2022-08-02T01:07:00;8.13;;;3.17;;
68449;SDS011;55434;39.570;2.652;2022-08-02T01:09:30;8.10;;;3.17;;
68449;SDS011;55434;39.570;2.652;2022-08-02T01:11:56;6.60;;;3.27;;
68449;SDS011;55434;39.570;2.652;2022-08-02T01:14:21;10.13;;;3.07;;
68449;SDS011;55434;39.570;2.652;2022-08-02T01:16:49;8.20;;;3.10;;
68449;SDS011;55434;39.570;2.652;2022-08-02T01:22:19;7.68;;;3.50;;
68449;SDS011;55434;39.570;2.652;2022-08-02T01:24:54;5.68;;;2.80;;
68449;SDS011;55434;39.570;2.652;2022-08-02T01:30:33;5.78;;;3.25;;
68449;SDS011;55434;39.570;2.652;2022-08-02T01:33:00;5.60;;;2.80;;
68449;SDS011;55434;39.570;2.652;2022-08-02T01:35:41;6.25;;;3.05;;
68449;SDS011;55434;39.570;2.652;2022-08-02T01:38:15;8.27;;;3.35;;
68449;SDS011;55434;39.570;2.652;2022-08-02T01:40:55;7.80;;;3.27;;
68449;SDS011;55434;39.570;2.652;2022-08-02T01:43:50;9.10;;;2.83;;
68449;SDS011;55434;39.570;2.652;2022-08-02T01:46:28;6.13;;;2.85;;
68449;SDS011;55434;39.570;2.652;2022-08-02T01:49:02;8.45;;;3.40;;
68449;SDS011;55434;39.570;2.652;2022-08-02T01:51:32;7.38;;;3.45;;
68449;SDS011;55434;39.570;2.652;2022-08-02T01:54:21;9.40;;;3.00;;
68449;SDS011;55434;39.570;2.652;2022-08-02T01:56:51;7.38;;;3.03;;
68449;SDS011;55434;39.570;2.652;2022-08-02T01:59:30;7.45;;;3.53;;
68449;SDS011;55434;39.570;2.652;2022-08-02T02:01:59;6.05;;;2.90;;
68449;SDS011;55434;39.570;2.652;2022-08-02T02:07:19;9.23;;;2.93;;
68449;SDS011;55434;39.570;2.652;2022-08-02T02:10:04;7.60;;;3.10;;
68449;SDS011;55434;39.570;2.652;2022-08-02T02:12:49;7.28;;;2.92;;
68449;SDS011;55434;39.570;2.652;2022-08-02T02:21:20;10.27;;;3.00;;
68449;SDS011;55434;39.570;2.652;2022-08-02T02:23:58;6.40;;;2.65;;
68449;SDS011;55434;39.570;2.652;2022-08-02T02:26:39;5.60;;;3.22;;
68449;SDS011;55434;39.570;2.652;2022-08-02T02:29:46;6.40;;;3.50;;
68449;SDS011;55434;39.570;2.652;2022-08-02T02:33:03;7.50;;;3.55;;
68449;SDS011;55434;39.570;2.652;2022-08-02T02:35:35;11.87;;;3.43;;
68449;SDS011;55434;39.570;2.652;2022-08-02T02:41:06;10.05;;;4.75;;
68449;SDS011;55434;39.570;2.652;2022-08-02T02:43:50;8.18;;;3.83;;
68449;SDS011;55434;39.570;2.652;2022-08-02T02:46:50;6.38;;;2.80;;
68449;SDS011;55434;39.570;2.652;2022-08-02T02:49:27;7.03;;;2.93;;
68449;SDS011;55434;39.570;2.652;2022-08-02T02:52:08;7.72;;;3.10;;
68449;SDS011;55434;39.570;2.652;2022-08-02T02:54:40;5.65;;;2.88;;
68449;SDS011;55434;39.570;2.652;2022-08-02T02:57:12;7.60;;;3.30;;
68449;SDS011;55434;39.570;2.652;2022-08-02T02:59:47;7.93;;;3.20;;
68449;SDS011;55434;39.570;2.652;2022-08-02T03:02:19;7.27;;;3.00;;
68449;SDS011;55434;39.570;2.652;2022-08-02T03:04:48;8.85;;;3.00;;
68449;SDS011;55434;39.570;2.652;2022-08-02T03:07:50;7.40;;;3.35;;
68449;SDS011;55434;39.570;2.652;2022-08-02T03:10:54;6.85;;;3.47;;
68449;SDS011;55434;39.570;2.652;2022-08-02T03:13:37;7.82;;;3.15;;
68449;SDS011;55434;39.570;2.652;2022-08-02T03:16:17;8.20;;;3.07;;
68449;SDS011;55434;39.570;2.652;2022-08-02T03:18:49;6.78;;;2.85;;
68449;SDS011;55434;39.570;2.652;2022-08-02T03:21:28;7.80;;;3.03;;
68449;SDS011;55434;39.570;2.652;2022-08-02T03:23:58;6.20;;;2.85;;
68449;SDS011;55434;39.570;2.652;2022-08-02T03:26:28;10.40;;;3.10;;
68449;SDS011;55434;39.570;2.652;2022-08-02T03:28:57;8.37;;;2.83;;
68449;SDS011;55434;39.570;2.652;2022-08-02T03:31:23;12.55;;;3.72;;
68449;SDS011;55434;39.570;2.652;2022-08-02T03:33:48;6.68;;;3.00;;
68449;SDS011;55434;39.570;2.652;2022-08-02T03:36:16;8.45;;;3.30;;
68449;SDS011;55434;39.570;2.652;2022-08-02T03:38:48;7.43;;;3.17;;
68449;SDS011;55434;39.570;2.652;2022-08-02T03:41:16;7.70;;;2.80;;
68449;SDS011;55434;39.570;2.652;2022-08-02T03:43:44;10.98;;;3.20;;
68449;SDS011;55434;39.570;2.652;2022-08-02T03:46:12;6.65;;;2.60;;
68449;SDS011;55434;39.570;2.652;2022-08-02T03:48:42;7.45;;;3.05;;
68449;SDS011;55434;39.570;2.652;2022-08-02T03:51:09;7.13;;;2.63;;
68449;SDS011;55434;39.570;2.652;2022-08-02T03:53:35;8.70;;;2.60;;
68449;SDS011;55434;39.570;2.652;2022-08-02T03:56:03;7.20;;;2.92;;
68449;SDS011;55434;39.570;2.652;2022-08-02T03:58:29;6.47;;;2.70;;
68449;SDS011;55434;39.570;2.652;2022-08-02T04:00:56;5.80;;;2.70;;
68449;SDS011;55434;39.570;2.652;2022-08-02T04:03:24;7.53;;;2.70;;
68449;SDS011;55434;39.570;2.652;2022-08-02T04:05:50;6.57;;;2.55;;
68449;SDS011;55434;39.570;2.652;2022-08-02T04:08:18;10.98;;;2.58;;
68449;SDS011;55434;39.570;2.652;2022-08-02T04:10:46;8.25;;;3.35;;
68449;SDS011;55434;39.570;2.652;2022-08-02T04:13:39;5.75;;;2.70;;
68449;SDS011;55434;39.570;2.652;2022-08-02T04:16:20;7.87;;;2.50;;
68449;SDS011;55434;39.570;2.652;2022-08-02T04:18:54;7.25;;;2.90;;
68449;SDS011;55434;39.570;2.652;2022-08-02T04:21:34;7.95;;;2.65;;
68449;SDS011;55434;39.570;2.652;2022-08-02T04:24:02;6.80;;;2.70;;
68449;SDS011;55434;39.570;2.652;2022-08-02T04:26:38;8.38;;;2.65;;
68449;SDS011;55434;39.570;2.652;2022-08-02T04:29:14;7.30;;;3.10;;
68449;SDS011;55434;39.570;2.652;2022-08-02T04:32:06;8.05;;;3.40;;
68449;SDS011;55434;39.570;2.652;2022-08-02T04:34:33;9.38;;;3.00;;
68449;SDS011;55434;39.570;2.652;2022-08-02T04:37:12;9.88;;;3.28;;
68449;SDS011;55434;39.570;2.652;2022-08-02T04:39:41;8.52;;;3.35;;
68449;SDS011;55434;39.570;2.652;2022-08-02T04:42:18;8.07;;;3.10;;
68449;SDS011;55434;39.570;2.652;2022-08-02T04:44:51;9.30;;;3.20;;
68449;SDS011;55434;39.570;2.652;2022-08-02T04:47:26;6.78;;;3.08;;
68449;SDS011;55434;39.570;2.652;2022-08-02T04:50:17;6.85;;;2.97;;
68449;SDS011;55434;39.570;2.652;2022-08-02T04:53:00;8.32;;;3.55;;
68449;SDS011;55434;39.570;2.652;2022-08-02T04:55:28;12.73;;;3.43;;
68449;SDS011;55434;39.570;2.652;2022-08-02T04:57:57;10.18;;;3.50;;
68449;SDS011;55434;39.570;2.652;2022-08-02T05:00:25;11.02;;;3.60;;
68449;SDS011;55434;39.570;2.652;2022-08-02T05:03:05;6.65;;;3.20;;
68449;SDS011;55434;39.570;2.652;2022-08-02T05:05:49;9.80;;;3.60;;
68449;SDS011;55434;39.570;2.652;2022-08-02T05:08:30;9.77;;;3.40;;
68449;SDS011;55434;39.570;2.652;2022-08-02T05:14:39;14.02;;;4.40;;
68449;SDS011;55434;39.570;2.652;2022-08-02T05:17:26;19.92;;;3.80;;
68449;SDS011;55434;39.570;2.652;2022-08-02T05:20:01;10.57;;;3.30;;
68449;SDS011;55434;39.570;2.652;2022-08-02T05:22:29;8.97;;;3.40;;
68449;SDS011;55434;39.570;2.652;2022-08-02T05:24:57;10.02;;;3.60;;
68449;SDS011;55434;39.570;2.652;2022-08-02T05:27:22;13.60;;;4.13;;
68449;SDS011;55434;39.570;2.652;2022-08-02T05:29:51;12.45;;;3.42;;
68449;SDS011;55434;39.570;2.652;2022-08-02T05:38:18;7.60;;;3.67;;
68449;SDS011;55434;39.570;2.652;2022-08-02T05:40:46;9.23;;;3.90;;
68449;SDS011;55434;39.570;2.652;2022-08-02T05:43:12;10.43;;;4.07;;
68449;SDS011;55434;39.570;2.652;2022-08-02T05:45:38;9.98;;;3.70;;
68449;SDS011;55434;39.570;2.652;2022-08-02T05:48:04;7.72;;;3.75;;
68449;SDS011;55434;39.570;2.652;2022-08-02T05:50:31;13.18;;;3.95;;
68449;SDS011;55434;39.570;2.652;2022-08-02T05:53:36;10.27;;;3.75;;
68449;SDS011;55434;39.570;2.652;2022-08-02T06:02:36;12.15;;;4.05;;
68449;SDS011;55434;39.570;2.652;2022-08-02T06:05:13;9.23;;;3.22;;
68449;SDS011;55434;39.570;2.652;2022-08-02T06:07:44;14.18;;;3.72;;
68449;SDS011;55434;39.570;2.652;2022-08-02T06:10:12;10.77;;;3.13;;
68449;SDS011;55434;39.570;2.652;2022-08-02T06:12:45;10.18;;;3.67;;
68449;SDS011;55434;39.570;2.652;2022-08-02T06:15:14;11.73;;;3.88;;
68449;SDS011;55434;39.570;2.652;2022-08-02T06:17:42;10.80;;;3.35;;
68449;SDS011;55434;39.570;2.652;2022-08-02T06:20:11;11.30;;;3.40;;
68449;SDS011;55434;39.570;2.652;2022-08-02T06:22:39;12.33;;;3.47;;
68449;SDS011;55434;39.570;2.652;2022-08-02T06:25:06;13.25;;;4.00;;
68449;SDS011;55434;39.570;2.652;2022-08-02T06:27:32;12.30;;;3.33;;
68449;SDS011;55434;39.570;2.652;2022-08-02T06:29:59;14.65;;;3.90;;
68449;SDS011;55434;39.570;2.652;2022-08-02T06:32:26;15.73;;;3.35;;
68449;SDS011;55434;39.570;2.652;2022-08-02T06:34:52;13.00;;;3.67;;
68449;SDS011;55434;39.570;2.652;2022-08-02T06:40:13;15.48;;;3.33;;
68449;SDS011;55434;39.570;2.652;2022-08-02T06:45:46;14.60;;;3.45;;
68449;SDS011;55434;39.570;2.652;2022-08-02T06:48:11;9.63;;;3.67;;
68449;SDS011;55434;39.570;2.652;2022-08-02T06:50:37;16.70;;;4.43;;
68449;SDS011;55434;39.570;2.652;2022-08-02T06:53:07;12.40;;;3.28;;
68449;SDS011;55434;39.570;2.652;2022-08-02T06:55:33;12.35;;;3.80;;
68449;SDS011;55434;39.570;2.652;2022-08-02T06:57:59;11.13;;;3.60;;
68449;SDS011;55434;39.570;2.652;2022-08-02T07:00:25;17.85;;;3.90;;
68449;SDS011;55434;39.570;2.652;2022-08-02T07:02:52;18.13;;;4.70;;
68449;SDS011;55434;39.570;2.652;2022-08-02T07:05:17;12.20;;;3.90;;
68449;SDS011;55434;39.570;2.652;2022-08-02T07:07:43;13.00;;;3.70;;
68449;SDS011;55434;39.570;2.652;2022-08-02T07:10:10;16.45;;;4.10;;
68449;SDS011;55434;39.570;2.652;2022-08-02T07:12:37;19.03;;;4.50;;
68449;SDS011;55434;39.570;2.652;2022-08-02T07:15:04;14.95;;;4.22;;
68449;SDS011;55434;39.570;2.652;2022-08-02T07:17:32;16.80;;;3.85;;
68449;SDS011;55434;39.570;2.652;2022-08-02T07:19:58;11.93;;;4.20;;
68449;SDS011;55434;39.570;2.652;2022-08-02T07:22:25;11.98;;;3.78;;
68449;SDS011;55434;39.570;2.652;2022-08-02T07:24:52;8.07;;;3.58;;
68449;SDS011;55434;39.570;2.652;2022-08-02T07:27:19;9.25;;;4.00;;
68449;SDS011;55434;39.570;2.652;2022-08-02T07:29:46;10.32;;;3.72;;
68449;SDS011;55434;39.570;2.652;2022-08-02T07:32:11;12.48;;;3.95;;
68449;SDS011;55434;39.570;2.652;2022-08-02T07:34:37;8.55;;;3.53;;
68449;SDS011;55434;39.570;2.652;2022-08-02T07:37:03;12.53;;;4.03;;
68449;SDS011;55434;39.570;2.652;2022-08-02T07:39:31;8.23;;;3.47;;
68449;SDS011;55434;39.570;2.652;2022-08-02T07:41:57;11.93;;;3.22;;
68449;SDS011;55434;39.570;2.652;2022-08-02T07:44:22;12.70;;;3.57;;
68449;SDS011;55434;39.570;2.652;2022-08-02T07:46:48;7.20;;;2.83;;
68449;SDS011;55434;39.570;2.652;2022-08-02T07:49:13;8.95;;;3.25;;
68449;SDS011;55434;39.570;2.652;2022-08-02T07:51:43;12.10;;;2.87;;
68449;SDS011;55434;39.570;2.652;2022-08-02T07:54:09;11.57;;;3.45;;
68449;SDS011;55434;39.570;2.652;2022-08-02T07:56:35;10.45;;;3.13;;
68449;SDS011;55434;39.570;2.652;2022-08-02T07:59:01;8.40;;;3.00;;
68449;SDS011;55434;39.570;2.652;2022-08-02T08:01:27;14.27;;;2.63;;
68449;SDS011;55434;39.570;2.652;2022-08-02T08:03:53;9.73;;;3.10;;
68449;SDS011;55434;39.570;2.652;2022-08-02T08:06:18;8.07;;;2.60;;
68449;SDS011;55434;39.570;2.652;2022-08-02T08:08:44;6.00;;;2.40;;
68449;SDS011;55434;39.570;2.652;2022-08-02T08:11:10;5.82;;;2.25;;
68449;SDS011;55434;39.570;2.652;2022-08-02T08:13:36;7.03;;;2.63;;
68449;SDS011;55434;39.570;2.652;2022-08-02T08:16:01;6.55;;;2.50;;
68449;SDS011;55434;39.570;2.652;2022-08-02T08:18:28;6.38;;;2.47;;
68449;SDS011;55434;39.570;2.652;2022-08-02T08:20:53;8.10;;;2.20;;
68449;SDS011;55434;39.570;2.652;2022-08-02T08:23:19;7.10;;;2.63;;
68449;SDS011;55434;39.570;2.652;2022-08-02T08:25:44;8.27;;;2.50;;
68449;SDS011;55434;39.570;2.652;2022-08-02T08:28:10;8.23;;;2.67;;
68449;SDS011;55434;39.570;2.652;2022-08-02T08:30:36;8.18;;;2.78;;
68449;SDS011;55434;39.570;2.652;2022-08-02T08:33:01;10.33;;;2.77;;
68449;SDS011;55434;39.570;2.652;2022-08-02T08:35:28;14.70;;;3.20;;
68449;SDS011;55434;39.570;2.652;2022-08-02T08:37:55;6.45;;;2.65;;
68449;SDS011;55434;39.570;2.652;2022-08-02T08:40:20;6.70;;;3.00;;
68449;SDS011;55434;39.570;2.652;2022-08-02T08:42:48;6.10;;;2.88;;
68449;SDS011;55434;39.570;2.652;2022-08-02T08:45:14;11.63;;;3.08;;
68449;SDS011;55434;39.570;2.652;2022-08-02T08:47:41;8.30;;;2.85;;
68449;SDS011;55434;39.570;2.652;2022-08-02T08:50:15;9.23;;;3.00;;
68449;SDS011;55434;39.570;2.652;2022-08-02T08:52:48;7.47;;;3.20;;
68449;SDS011;55434;39.570;2.652;2022-08-02T08:55:21;8.73;;;3.00;;
68449;SDS011;55434;39.570;2.652;2022-08-02T08:57:50;8.38;;;2.90;;
68449;SDS011;55434;39.570;2.652;2022-08-02T09:00:17;8.48;;;2.90;;
68449;SDS011;55434;39.570;2.652;2022-08-02T09:02:44;7.00;;;2.97;;
68449;SDS011;55434;39.570;2.652;2022-08-02T09:05:22;7.47;;;3.38;;
68449;SDS011;55434;39.570;2.652;2022-08-02T09:07:52;6.30;;;2.75;;
68449;SDS011;55434;39.570;2.652;2022-08-02T09:13:14;8.15;;;3.08;;
68449;SDS011;55434;39.570;2.652;2022-08-02T09:15:59;8.80;;;3.10;;
68449;SDS011;55434;39.570;2.652;2022-08-02T09:18:32;5.68;;;2.70;;
68449;SDS011;55434;39.570;2.652;2022-08-02T09:21:08;10.30;;;3.05;;
68449;SDS011;55434;39.570;2.652;2022-08-02T09:23:38;9.52;;;3.45;;
68449;SDS011;55434;39.570;2.652;2022-08-02T09:26:10;10.10;;;3.25;;
68449;SDS011;55434;39.570;2.652;2022-08-02T09:28:40;9.55;;;3.38;;
68449;SDS011;55434;39.570;2.652;2022-08-02T09:31:11;8.57;;;2.83;;
68449;SDS011;55434;39.570;2.652;2022-08-02T09:33:40;7.05;;;2.97;;
68449;SDS011;55434;39.570;2.652;2022-08-02T09:38:39;8.93;;;2.38;;
68449;SDS011;55434;39.570;2.652;2022-08-02T13:39:08;7.17;;;5.90;;
68449;SDS011;55434;39.570;2.652;2022-08-02T13:41:40;7.57;;;5.68;;
68449;SDS011;55434;39.570;2.652;2022-08-02T13:44:20;10.00;;;5.85;;
68449;SDS011;55434;39.570;2.652;2022-08-02T13:47:10;8.80;;;5.53;;
68449;SDS011;55434;39.570;2.652;2022-08-02T13:49:37;7.18;;;5.93;;
68449;SDS011;55434;39.570;2.652;2022-08-02T13:52:03;11.13;;;5.53;;
68449;SDS011;55434;39.570;2.652;2022-08-02T13:54:34;7.25;;;5.43;;
68449;SDS011;55434;39.570;2.652;2022-08-02T13:57:02;8.15;;;4.90;;
68449;SDS011;55434;39.570;2.652;2022-08-02T13:59:41;7.03;;;5.28;;
68449;SDS011;55434;39.570;2.652;2022-08-02T14:02:32;10.20;;;4.67;;
68449;SDS011;55434;39.570;2.652;2022-08-02T14:05:07;7.55;;;4.55;;
68449;SDS011;55434;39.570;2.652;2022-08-02T14:07:42;10.65;;;5.40;;
68449;SDS011;55434;39.570;2.652;2022-08-02T14:10:24;8.43;;;3.70;;
68449;SDS011;55434;39.570;2.652;2022-08-02T14:13:17;7.00;;;4.10;;
68449;SDS011;55434;39.570;2.652;2022-08-02T14:15:52;5.60;;;3.70;;
68449;SDS011;55434;39.570;2.652;2022-08-02T14:18:32;7.00;;;3.80;;
68449;SDS011;55434;39.570;2.652;2022-08-02T14:21:07;6.90;;;4.45;;
68449;SDS011;55434;39.570;2.652;2022-08-02T14:24:37;8.48;;;4.20;;
68449;SDS011;55434;39.570;2.652;2022-08-02T14:27:04;7.13;;;3.88;;
68449;SDS011;55434;39.570;2.652;2022-08-02T14:29:36;6.97;;;3.40;;
68449;SDS011;55434;39.570;2.652;2022-08-02T14:32:05;7.25;;;4.22;;
68449;SDS011;55434;39.570;2.652;2022-08-02T14:34:33;9.73;;;4.88;;
68449;SDS011;55434;39.570;2.652;2022-08-02T14:37:17;7.15;;;5.18;;
68449;SDS011;55434;39.570;2.652;2022-08-02T14:39:50;7.97;;;5.85;;
68449;SDS011;55434;39.570;2.652;2022-08-02T14:42:48;7.60;;;5.03;;
68449;SDS011;55434;39.570;2.652;2022-08-02T14:45:20;6.60;;;4.57;;
68449;SDS011;55434;39.570;2.652;2022-08-02T14:47:54;9.65;;;5.47;;
68449;SDS011;55434;39.570;2.652;2022-08-02T14:56:06;7.33;;;4.07;;
68449;SDS011;55434;39.570;2.652;2022-08-02T14:58:35;9.00;;;4.82;;
68449;SDS011;55434;39.570;2.652;2022-08-02T15:01:01;6.72;;;5.00;;
68449;SDS011;55434;39.570;2.652;2022-08-02T15:03:30;9.30;;;6.38;;
68449;SDS011;55434;39.570;2.652;2022-08-02T15:05:57;13.07;;;5.50;;
68449;SDS011;55434;39.570;2.652;2022-08-02T15:08:28;9.37;;;5.60;;
68449;SDS011;55434;39.570;2.652;2022-08-02T15:10:53;7.65;;;4.70;;
68449;SDS011;55434;39.570;2.652;2022-08-02T15:13:21;7.07;;;5.25;;
68449;SDS011;55434;39.570;2.652;2022-08-02T15:15:47;7.43;;;4.85;;
68449;SDS011;55434;39.570;2.652;2022-08-02T15:18:13;10.03;;;4.00;;
68449;SDS011;55434;39.570;2.652;2022-08-02T15:20:39;7.10;;;4.40;;
68449;SDS011;55434;39.570;2.652;2022-08-02T15:23:05;6.97;;;4.30;;
68449;SDS011;55434;39.570;2.652;2022-08-02T15:25:32;7.43;;;5.75;;
68449;SDS011;55434;39.570;2.652;2022-08-02T15:27:59;9.50;;;5.22;;
68449;SDS011;55434;39.570;2.652;2022-08-02T15:30:25;7.75;;;5.05;;
68449;SDS011;55434;39.570;2.652;2022-08-02T15:32:53;7.18;;;4.78;;
68449;SDS011;55434;39.570;2.652;2022-08-02T15:35:22;8.47;;;4.77;;
68449;SDS011;55434;39.570;2.652;2022-08-02T15:37:55;6.18;;;4.43;;
68449;SDS011;55434;39.570;2.652;2022-08-02T15:40:31;7.40;;;4.90;;
68449;SDS011;55434;39.570;2.652;2022-08-02T15:43:00;8.30;;;4.85;;
68449;SDS011;55434;39.570;2.652;2022-08-02T15:45:31;7.97;;;4.77;;
68449;SDS011;55434;39.570;2.652;2022-08-02T15:48:02;15.60;;;4.68;;
68449;SDS011;55434;39.570;2.652;2022-08-02T15:50:36;7.53;;;4.95;;
68449;SDS011;55434;39.570;2.652;2022-08-02T15:53:06;7.82;;;5.05;;
68449;SDS011;55434;39.570;2.652;2022-08-02T15:55:32;9.30;;;4.60;;
68449;SDS011;55434;39.570;2.652;2022-08-02T15:58:00;9.53;;;4.93;;
68449;SDS011;55434;39.570;2.652;2022-08-02T16:00:29;8.65;;;4.05;;
68449;SDS011;55434;39.570;2.652;2022-08-02T16:02:55;7.28;;;5.00;;
68449;SDS011;55434;39.570;2.652;2022-08-02T16:05:23;8.18;;;4.80;;
68449;SDS011;55434;39.570;2.652;2022-08-02T16:07:53;9.95;;;4.90;;
68449;SDS011;55434;39.570;2.652;2022-08-02T16:13:47;8.20;;;5.35;;
68449;SDS011;55434;39.570;2.652;2022-08-02T16:16:27;8.23;;;5.65;;
68449;SDS011;55434;39.570;2.652;2022-08-02T16:18:57;11.48;;;5.72;;
68449;SDS011;55434;39.570;2.652;2022-08-02T16:21:33;13.25;;;5.20;;
68449;SDS011;55434;39.570;2.652;2022-08-02T16:27:05;8.32;;;4.90;;
68449;SDS011;55434;39.570;2.652;2022-08-02T16:29:32;8.15;;;5.28;;
68449;SDS011;55434;39.570;2.652;2022-08-02T16:32:00;9.80;;;5.83;;
68449;SDS011;55434;39.570;2.652;2022-08-02T16:34:25;7.53;;;5.45;;
68449;SDS011;55434;39.570;2.652;2022-08-02T16:37:06;7.32;;;5.00;;
68449;SDS011;55434;39.570;2.652;2022-08-02T16:39:34;6.55;;;5.20;;
68449;SDS011;55434;39.570;2.652;2022-08-02T16:42:00;8.00;;;5.30;;
68449;SDS011;55434;39.570;2.652;2022-08-02T16:44:27;10.47;;;4.60;;
68449;SDS011;55434;39.570;2.652;2022-08-02T16:46:54;8.55;;;4.95;;
68449;SDS011;55434;39.570;2.652;2022-08-02T16:49:20;8.95;;;4.70;;
68449;SDS011;55434;39.570;2.652;2022-08-02T16:51:48;11.48;;;5.30;;
68449;SDS011;55434;39.570;2.652;2022-08-02T16:54:16;8.70;;;4.55;;
68449;SDS011;55434;39.570;2.652;2022-08-02T16:56:45;5.83;;;3.73;;
68449;SDS011;55434;39.570;2.652;2022-08-02T16:59:14;9.23;;;4.30;;
68449;SDS011;55434;39.570;2.652;2022-08-02T17:01:41;7.75;;;3.95;;
68449;SDS011;55434;39.570;2.652;2022-08-02T17:04:07;7.53;;;3.80;;
68449;SDS011;55434;39.570;2.652;2022-08-02T17:06:37;8.73;;;3.50;;
68449;SDS011;55434;39.570;2.652;2022-08-02T17:09:03;7.72;;;3.83;;
68449;SDS011;55434;39.570;2.652;2022-08-02T17:11:32;9.05;;;3.53;;
68449;SDS011;55434;39.570;2.652;2022-08-02T17:14:06;6.65;;;3.90;;
68449;SDS011;55434;39.570;2.652;2022-08-02T17:16:31;7.15;;;3.55;;
68449;SDS011;55434;39.570;2.652;2022-08-02T17:18:57;6.93;;;3.63;;
68449;SDS011;55434;39.570;2.652;2022-08-02T17:21:32;8.82;;;4.13;;
68449;SDS011;55434;39.570;2.652;2022-08-02T17:24:00;6.50;;;3.58;;
68449;SDS011;55434;39.570;2.652;2022-08-02T17:26:26;6.80;;;3.80;;
68449;SDS011;55434;39.570;2.652;2022-08-02T17:28:58;11.02;;;3.70;;
68449;SDS011;55434;39.570;2.652;2022-08-02T17:31:24;7.82;;;3.60;;
68449;SDS011;55434;39.570;2.652;2022-08-02T17:33:50;6.47;;;3.40;;
68449;SDS011;55434;39.570;2.652;2022-08-02T17:36:15;8.30;;;3.65;;
68449;SDS011;55434;39.570;2.652;2022-08-02T17:38:42;7.70;;;3.42;;
68449;SDS011;55434;39.570;2.652;2022-08-02T17:41:08;7.40;;;3.50;;
68449;SDS011;55434;39.570;2.652;2022-08-02T17:43:33;8.20;;;3.63;;
68449;SDS011;55434;39.570;2.652;2022-08-02T17:45:59;6.57;;;3.35;;
68449;SDS011;55434;39.570;2.652;2022-08-02T17:48:25;6.95;;;3.63;;
68449;SDS011;55434;39.570;2.652;2022-08-02T17:50:51;7.55;;;3.40;;
68449;SDS011;55434;39.570;2.652;2022-08-02T17:53:16;9.60;;;3.90;;
68449;SDS011;55434;39.570;2.652;2022-08-02T17:55:45;9.02;;;3.30;;
68449;SDS011;55434;39.570;2.652;2022-08-02T17:58:11;8.43;;;3.40;;
68449;SDS011;55434;39.570;2.652;2022-08-02T18:00:39;7.90;;;3.30;;
68449;SDS011;55434;39.570;2.652;2022-08-02T18:03:05;7.38;;;3.03;;
68449;SDS011;55434;39.570;2.652;2022-08-02T18:05:31;6.25;;;3.20;;
68449;SDS011;55434;39.570;2.652;2022-08-02T18:07:57;7.50;;;3.38;;
68449;SDS011;55434;39.570;2.652;2022-08-02T18:10:24;7.90;;;3.10;;
68449;SDS011;55434;39.570;2.652;2022-08-02T18:12:50;7.35;;;3.03;;
68449;SDS011;55434;39.570;2.652;2022-08-02T18:15:17;8.10;;;3.70;;
68449;SDS011;55434;39.570;2.652;2022-08-02T18:17:44;7.30;;;3.97;;
68449;SDS011;55434;39.570;2.652;2022-08-02T18:20:10;6.78;;;4.50;;
68449;SDS011;55434;39.570;2.652;2022-08-02T18:22:36;9.80;;;4.55;;
68449;SDS011;55434;39.570;2.652;2022-08-02T18:25:02;7.83;;;3.30;;
68449;SDS011;55434;39.570;2.652;2022-08-02T18:27:28;8.52;;;3.25;;
68449;SDS011;55434;39.570;2.652;2022-08-02T18:29:54;7.40;;;3.65;;
68449;SDS011;55434;39.570;2.652;2022-08-02T18:32:19;9.00;;;3.53;;
68449;SDS011;55434;39.570;2.652;2022-08-02T18:34:45;10.90;;;3.50;;
68449;SDS011;55434;39.570;2.652;2022-08-02T18:37:11;10.10;;;3.65;;
68449;SDS011;55434;39.570;2.652;2022-08-02T18:39:36;8.73;;;3.15;;
68449;SDS011;55434;39.570;2.652;2022-08-02T18:42:03;6.43;;;3.55;;
68449;SDS011;55434;39.570;2.652;2022-08-02T18:44:29;6.43;;;3.05;;
68449;SDS011;55434;39.570;2.652;2022-08-02T18:46:55;7.43;;;3.43;;
68449;SDS011;55434;39.570;2.652;2022-08-02T18:49:20;8.93;;;3.42;;
68449;SDS011;55434;39.570;2.652;2022-08-02T18:51:47;9.20;;;3.10;;
68449;SDS011;55434;39.570;2.652;2022-08-02T18:54:13;9.87;;;3.57;;
68449;SDS011;55434;39.570;2.652;2022-08-02T18:56:39;9.15;;;3.70;;
68449;SDS011;55434;39.570;2.652;2022-08-02T18:59:06;13.32;;;3.25;;
68449;SDS011;55434;39.570;2.652;2022-08-02T19:01:32;8.50;;;3.20;;
68449;SDS011;55434;39.570;2.652;2022-08-02T19:03:58;10.40;;;3.70;;
68449;SDS011;55434;39.570;2.652;2022-08-02T19:06:33;7.05;;;2.88;;
68449;SDS011;55434;39.570;2.652;2022-08-02T19:08:59;10.25;;;3.40;;
68449;SDS011;55434;39.570;2.652;2022-08-02T19:11:30;8.63;;;2.43;;
68449;SDS011;55434;39.570;2.652;2022-08-02T19:16:48;8.55;;;3.53;;
68449;SDS011;55434;39.570;2.652;2022-08-02T19:19:17;9.07;;;3.47;;
68449;SDS011;55434;39.570;2.652;2022-08-02T19:21:44;7.40;;;3.47;;
68449;SDS011;55434;39.570;2.652;2022-08-02T19:24:10;7.43;;;2.60;;
68449;SDS011;55434;39.570;2.652;2022-08-02T19:26:39;6.80;;;3.05;;
68449;SDS011;55434;39.570;2.652;2022-08-02T19:29:05;8.73;;;2.80;;
68449;SDS011;55434;39.570;2.652;2022-08-02T19:31:34;11.77;;;2.80;;
68449;SDS011;55434;39.570;2.652;2022-08-02T19:33:59;8.20;;;3.17;;
68449;SDS011;55434;39.570;2.652;2022-08-02T19:36:25;8.48;;;3.03;;
68449;SDS011;55434;39.570;2.652;2022-08-02T19:38:51;6.63;;;3.13;;
68449;SDS011;55434;39.570;2.652;2022-08-02T19:41:21;8.63;;;3.00;;
68449;SDS011;55434;39.570;2.652;2022-08-02T19:43:56;7.93;;;3.38;;
68449;SDS011;55434;39.570;2.652;2022-08-02T19:46:24;12.57;;;3.65;;
68449;SDS011;55434;39.570;2.652;2022-08-02T19:48:55;6.72;;;3.40;;
68449;SDS011;55434;39.570;2.652;2022-08-02T19:51:52;10.87;;;3.70;;
68449;SDS011;55434;39.570;2.652;2022-08-02T19:54:25;8.13;;;3.38;;
68449;SDS011;55434;39.570;2.652;2022-08-02T19:56:51;9.02;;;3.58;;
68449;SDS011;55434;39.570;2.652;2022-08-02T19:59:17;8.25;;;3.33;;
68449;SDS011;55434;39.570;2.652;2022-08-02T20:02:05;10.30;;;4.10;;
68449;SDS011;55434;39.570;2.652;2022-08-02T20:04:31;10.57;;;4.23;;